Time;durP1;ratioP1;P1;durP2;ratioP2;P2;SDS_P1;SDS_P2;PMS_P1;PMS_P2;Temp;Humidity;BMP_temperature;BMP_pressure;BME280_temperature;BME280_humidity;BME280_pressure;Samples;Min_cycle;Max_cycle;Signal;HPM_P1;HPM_P2
2023/03/02 05:22:32;;;;;;;8.35;5.15;;;;;;;-0.40;95.23;100394.09;5088994;28;20389;-68
2023/03/02 05:24:58;;;;;;;7.22;4.22;;;;;;;-0.44;96.27;100396.09;5089155;28;20128;-68
2023/03/02 05:27:23;;;;;;;6.80;5.78;;;;;;;-0.45;95.68;100394.44;5088781;28;20063;-68
2023/03/02 05:29:48;;;;;;;10.80;6.05;;;;;;;-0.55;96.21;100388.94;5088989;28;20048;-68
2023/03/02 05:32:14;;;;;;;13.40;6.65;;;;;;;-0.57;96.58;100387.38;5087673;28;20115;-68
2023/03/02 05:34:39;;;;;;;10.77;6.10;;;;;;;-0.61;95.27;100399.78;5088992;28;20323;-68
2023/03/02 05:37:05;;;;;;;10.30;5.70;;;;;;;-0.61;95.51;100389.31;5088725;28;20526;-67
2023/03/02 05:39:30;;;;;;;8.77;5.20;;;;;;;-0.67;96.18;100389.72;5088798;28;20040;-69
2023/03/02 05:41:55;;;;;;;8.98;5.80;;;;;;;-0.62;95.46;100392.06;5088729;28;20033;-68
2023/03/02 05:44:21;;;;;;;8.20;5.80;;;;;;;-0.67;95.37;100394.13;5088701;28;20063;-69
2023/03/02 05:46:48;;;;;;;11.80;5.20;;;;;;;-0.70;95.93;100400.41;5088637;28;20067;-69
2023/03/02 05:49:13;;;;;;;14.30;7.13;;;;;;;-0.76;96.39;100392.09;5088458;28;20445;-70
2023/03/02 05:51:39;;;;;;;10.40;5.32;;;;;;;-0.72;96.61;100398.78;5087376;28;20106;-69
2023/03/02 05:54:04;;;;;;;13.32;5.95;;;;;;;-0.77;96.47;100398.28;5088587;28;20130;-69
2023/03/02 05:56:29;;;;;;;11.55;7.03;;;;;;;-0.79;97.14;100392.28;5088339;28;20036;-69
2023/03/02 05:58:55;;;;;;;10.98;7.15;;;;;;;-0.78;97.35;100397.44;5087527;28;20476;-68
2023/03/02 06:01:20;;;;;;;13.00;7.38;;;;;;;-0.83;97.60;100395.09;5087759;28;20079;-69
2023/03/02 06:03:46;;;;;;;11.68;6.28;;;;;;;-0.72;96.66;100406.63;5087986;28;20043;-69
2023/03/02 06:06:12;;;;;;;12.73;6.38;;;;;;;-0.80;96.45;100403.69;5088276;28;20044;-69
2023/03/02 06:08:39;;;;;;;12.32;6.85;;;;;;;-0.75;96.83;100405.06;5087993;28;20044;-70
2023/03/02 06:11:05;;;;;;;11.82;6.60;;;;;;;-0.76;96.59;100397.31;5088321;28;20036;-69
2023/03/02 06:13:31;;;;;;;14.18;7.22;;;;;;;-0.76;96.84;100407.78;5088201;28;20036;-69
2023/03/02 06:15:56;;;;;;;8.25;5.75;;;;;;;-0.75;96.04;100396.38;5088014;28;20040;-69
2023/03/02 06:18:21;;;;;;;11.10;6.47;;;;;;;-0.68;96.54;100413.38;5088291;28;20033;-69
2023/03/02 06:20:48;;;;;;;11.20;5.97;;;;;;;-0.72;96.43;100427.56;5087218;28;20346;-69
2023/03/02 06:23:14;;;;;;;9.68;5.07;;;;;;;-0.78;96.23;100420.09;5082094;28;20453;-69
2023/03/02 06:25:42;;;;;;;9.07;5.85;;;;;;;-0.67;96.28;100425.50;5087920;28;20115;-69
2023/03/02 06:28:08;;;;;;;10.50;5.97;;;;;;;-0.72;95.88;100424.94;5087585;28;20386;-69
2023/03/02 06:30:33;;;;;;;11.13;6.10;;;;;;;-0.61;95.44;100428.56;5087829;28;20036;-68
2023/03/02 06:32:59;;;;;;;13.23;5.70;;;;;;;-0.67;95.54;100420.28;5079595;28;20043;-69
2023/03/02 06:35:24;;;;;;;11.50;5.43;;;;;;;-0.66;95.17;100429.81;5074258;28;20052;-69
2023/03/02 06:37:49;;;;;;;7.65;6.32;;;;;;;-0.57;95.60;100429.22;5073916;28;20044;-69
2023/03/02 06:40:15;;;;;;;11.05;5.47;;;;;;;-0.60;94.94;100435.47;5072901;28;20037;-69
2023/03/02 06:42:41;;;;;;;12.50;5.55;;;;;;;-0.56;94.69;100436.16;5072788;28;20090;-68
2023/03/02 06:45:08;;;;;;;10.95;7.18;;;;;;;-0.48;94.76;100439.09;5074074;28;20044;-68
2023/03/02 06:47:33;;;;;;;8.73;5.45;;;;;;;-0.42;94.21;100441.31;5073733;28;20086;-69
2023/03/02 06:49:59;;;;;;;14.05;6.53;;;;;;;-0.42;94.23;100441.31;5074038;28;20489;-69
2023/03/02 06:52:26;;;;;;;9.88;6.15;;;;;;;-0.35;94.18;100447.84;5074051;28;20443;-69
2023/03/02 06:54:52;;;;;;;12.68;6.57;;;;;;;-0.33;94.39;100437.28;5073989;28;20520;-65
2023/03/02 06:57:17;;;;;;;12.07;6.10;;;;;;;-0.18;94.02;100448.56;5073411;28;20076;-66
2023/03/02 06:59:43;;;;;;;10.00;6.05;;;;;;;-0.13;93.44;100451.69;5073819;28;20119;-66
2023/03/02 07:02:10;;;;;;;16.52;6.18;;;;;;;-0.21;93.48;100444.34;5073907;28;20097;-66
2023/03/02 07:04:35;;;;;;;12.40;5.87;;;;;;;-0.08;92.90;100447.84;5074033;28;20086;-65
2023/03/02 07:07:00;;;;;;;11.07;6.05;;;;;;;-0.05;92.86;100452.03;5073520;28;20037;-67
2023/03/02 07:09:26;;;;;;;13.93;7.22;;;;;;;-0.04;93.31;100445.88;5073593;28;20481;-67
2023/03/02 07:11:51;;;;;;;10.98;5.30;;;;;;;0.04;91.88;100448.81;5072167;28;20044;-65
2023/03/02 07:14:17;;;;;;;10.85;6.22;;;;;;;0.16;91.50;100455.88;5073598;28;20043;-66
2023/03/02 07:16:42;;;;;;;11.52;6.40;;;;;;;0.30;90.73;100456.72;5072128;28;20489;-66
2023/03/02 07:19:12;;;;;;;10.18;5.07;;;;;;;0.34;91.30;100455.59;5071956;28;20044;-66
2023/03/02 07:21:38;;;;;;;13.70;7.47;;;;;;;0.39;90.98;100440.38;5073315;28;20394;-65
2023/03/02 07:24:03;;;;;;;10.93;6.18;;;;;;;0.41;90.03;100433.28;5073395;28;20048;-66
2023/03/02 07:26:29;;;;;;;10.57;5.88;;;;;;;0.62;89.06;100446.69;5091778;28;20035;-66
2023/03/02 07:28:54;;;;;;;10.82;6.43;;;;;;;0.51;90.16;100452.66;5092805;28;20130;-66
2023/03/02 07:31:20;;;;;;;10.82;6.63;;;;;;;0.80;88.94;100451.50;5093360;28;20055;-65
2023/03/02 07:33:45;;;;;;;11.25;6.70;;;;;;;0.91;89.67;100447.28;5093409;28;20043;-66
2023/03/02 07:36:11;;;;;;;11.60;6.45;;;;;;;0.97;88.48;100446.88;5093343;28;20088;-67
2023/03/02 07:38:37;;;;;;;13.23;8.05;;;;;;;0.89;88.44;100451.81;5093078;28;20137;-66
2023/03/02 07:41:07;;;;;;;14.27;7.70;;;;;;;1.09;86.67;100453.88;5093249;28;20400;-65
2023/03/02 07:43:35;;;;;;;12.05;6.30;;;;;;;1.03;87.50;100460.41;5092815;28;20095;-66
2023/03/02 07:46:01;;;;;;;13.60;6.45;;;;;;;1.17;86.57;100462.06;5092669;28;20028;-65
2023/03/02 07:48:26;;;;;;;11.00;5.93;;;;;;;1.27;86.41;100467.50;5092849;28;20048;-66
2023/03/02 07:50:59;;;;;;;10.15;6.68;;;;;;;1.20;86.10;100466.25;5091709;28;20047;-67
2023/03/02 07:53:25;;;;;;;12.32;6.70;;;;;;;1.34;85.29;100466.97;5093033;28;20040;-66
2023/03/02 07:55:51;;;;;;;11.82;6.72;;;;;;;1.45;84.60;100465.38;5092803;28;20039;-67
2023/03/02 07:58:16;;;;;;;13.43;7.05;;;;;;;1.56;84.55;100462.78;5092738;28;20047;-67
2023/03/02 08:00:41;;;;;;;15.30;7.30;;;;;;;1.63;85.90;100456.19;5092824;28;20033;-66
2023/03/02 08:03:07;;;;;;;11.48;5.63;;;;;;;1.82;83.72;100464.38;5092839;28;20400;-66
2023/03/02 08:05:32;;;;;;;14.80;6.97;;;;;;;2.07;83.21;100467.81;5092746;28;20115;-67
2023/03/02 08:07:57;;;;;;;13.20;7.05;;;;;;;2.25;81.49;100471.72;5092506;28;20404;-67
2023/03/02 08:10:23;;;;;;;13.15;7.50;;;;;;;2.47;80.19;100472.72;5092395;28;20520;-66
2023/03/02 08:12:48;;;;;;;10.75;5.93;;;;;;;2.63;79.12;100454.84;5091604;28;20047;-68
2023/03/02 08:15:14;;;;;;;12.18;6.10;;;;;;;2.87;78.02;100466.13;5091261;28;20130;-67
2023/03/02 08:17:39;;;;;;;10.73;6.40;;;;;;;3.01;76.95;100466.84;5092262;28;20036;-67
2023/03/02 08:20:05;;;;;;;9.40;6.10;;;;;;;3.13;75.30;100466.72;5092386;28;20047;-67
2023/03/02 08:22:30;;;;;;;11.18;5.78;;;;;;;3.31;74.60;100467.06;5092504;28;20432;-67
2023/03/02 08:24:56;;;;;;;11.57;7.00;;;;;;;3.43;74.23;100470.53;5092314;28;20042;-66
2023/03/02 08:27:21;;;;;;;15.85;7.50;;;;;;;3.62;73.40;100477.78;5092162;28;20036;-67
2023/03/02 08:29:47;;;;;;;12.23;6.90;;;;;;;3.63;73.26;100471.56;5092429;28;20127;-66
2023/03/02 08:32:12;;;;;;;11.23;6.47;;;;;;;3.74;71.52;100466.28;5091092;28;20073;-66
2023/03/02 08:34:37;;;;;;;13.73;6.75;;;;;;;3.85;71.33;100463.63;5092261;28;20105;-67
2023/03/02 08:37:03;;;;;;;11.57;6.75;;;;;;;3.95;70.78;100471.59;5092028;28;20048;-67
2023/03/02 08:39:30;;;;;;;12.52;6.57;;;;;;;4.11;70.28;100472.03;5091877;28;20546;-66
2023/03/02 08:41:55;;;;;;;12.45;7.25;;;;;;;4.22;69.27;100469.31;5092119;28;20078;-67
2023/03/02 08:44:21;;;;;;;11.00;5.90;;;;;;;4.23;69.78;100472.78;5092275;28;20035;-68
2023/03/02 08:46:48;;;;;;;13.05;6.43;;;;;;;4.36;68.30;100468.16;5091955;28;20039;-65
2023/03/02 08:49:14;;;;;;;15.98;7.20;;;;;;;4.32;68.27;100466.78;5091810;28;20028;-66
2023/03/02 08:51:40;;;;;;;11.98;6.70;;;;;;;4.31;68.30;100470.38;5092280;28;20082;-66
2023/03/02 08:54:05;;;;;;;13.98;7.00;;;;;;;4.33;67.80;100456.09;5092365;28;20064;-67
2023/03/02 08:56:35;;;;;;;10.75;6.93;;;;;;;4.58;68.62;100444.31;5091553;28;20044;-66
2023/03/02 08:59:03;;;;;;;12.63;7.05;;;;;;;4.85;67.25;100451.69;5091626;28;20100;-65
2023/03/02 09:01:30;;;;;;;;;;;;;;;4.99;66.43;100445.22;5092320;28;20111;-66
2023/03/02 09:03:58;;;;;;;9.68;6.00;;;;;;;5.31;65.22;100446.88;5090652;28;19916;-67
2023/03/02 09:06:23;;;;;;;11.35;6.18;;;;;;;5.50;64.44;100444.28;5091750;28;20089;-66
2023/03/02 09:08:49;;;;;;;12.18;6.63;;;;;;;5.63;63.33;100444.03;5090130;28;20119;-65
2023/03/02 09:11:15;;;;;;;10.65;6.50;;;;;;;5.80;62.24;100450.44;5091579;28;20465;-67
2023/03/02 09:13:41;;;;;;;12.30;6.60;;;;;;;5.65;62.23;100447.34;5091580;28;20040;-67
2023/03/02 09:16:07;;;;;;;14.52;7.07;;;;;;;5.57;63.20;100452.50;5091524;28;20044;-67
2023/03/02 09:18:34;;;;;;;14.10;7.55;;;;;;;5.63;62.69;100449.31;5091195;28;20040;-67
2023/03/02 09:20:59;;;;;;;15.27;7.40;;;;;;;5.58;62.18;100448.88;5091499;28;20035;-66
2023/03/02 09:23:26;;;;;;;12.68;7.22;;;;;;;5.55;63.78;100444.72;5091470;28;20040;-67
2023/03/02 09:25:52;;;;;;;11.52;6.45;;;;;;;5.75;62.95;100445.56;5091464;28;20039;-66
2023/03/02 09:28:18;;;;;;;12.90;6.70;;;;;;;5.83;62.26;100445.72;5091309;28;20098;-67
2023/03/02 09:30:49;;;;;;;11.38;6.22;;;;;;;5.98;61.83;100454.94;5090259;28;20554;-67
2023/03/02 09:33:14;;;;;;;10.00;6.35;;;;;;;6.13;62.58;100451.88;5091499;28;20064;-67
2023/03/02 09:35:39;;;;;;;14.57;7.55;;;;;;;6.20;61.33;100459.13;5073103;28;20417;-66
2023/03/02 09:38:05;;;;;;;13.07;7.53;;;;;;;6.30;60.66;100453.81;5091145;28;20527;-67
2023/03/02 09:40:32;;;;;;;13.50;7.20;;;;;;;6.36;59.57;100458.53;5091485;28;20043;-67
2023/03/02 09:43:32;;;;;;;13.90;7.28;;;;;;;6.09;60.39;100453.97;5091573;28;20036;-67
2023/03/02 09:46:25;;;;;;;13.85;7.82;;;;;;;6.07;60.91;100457.75;5053537;28;20151;-66
2023/03/02 09:49:08;;;;;;;11.93;6.85;;;;;;;6.09;59.81;100455.78;5091186;28;20032;-67
2023/03/02 09:51:49;;;;;;;12.40;6.88;;;;;;;6.42;60.19;100459.78;5091239;28;20047;-68
2023/03/02 09:54:23;;;;;;;13.90;6.45;;;;;;;6.43;59.36;100457.00;5091354;28;20036;-67
2023/03/02 09:56:53;;;;;;;11.05;6.68;;;;;;;6.61;60.15;100456.28;5091235;28;20039;-67
2023/03/02 09:59:45;;;;;;;11.43;6.65;;;;;;;6.69;59.10;100451.94;5091098;28;20039;-66
2023/03/02 10:02:43;;;;;;;12.90;6.60;;;;;;;6.77;58.47;100444.09;5090021;28;20508;-66
2023/03/02 10:05:19;;;;;;;13.93;7.65;;;;;;;6.50;58.73;100446.69;5091151;28;20032;-67
2023/03/02 10:07:46;;;;;;;16.52;7.95;;;;;;;6.54;58.81;100448.09;5091072;28;20071;-67
2023/03/02 10:10:23;;;;;;;12.50;7.18;;;;;;;6.69;59.84;100454.59;5094959;28;20044;-66
2023/03/02 10:12:49;;;;;;;;;;;;;;;6.92;59.95;100446.31;5095303;28;20040;-67
2023/03/02 10:15:42;;;;;;;13.95;6.63;;;;;;;7.13;58.10;100444.28;5094147;28;19938;-67
2023/03/02 10:18:27;;;;;;;12.50;7.30;;;;;;;7.20;57.33;100447.16;5093951;28;20038;-67
2023/03/02 10:21:00;;;;;;;9.18;5.90;;;;;;;6.89;58.25;100450.06;5094119;28;20516;-64
2023/03/02 10:24:07;;;;;;;11.63;6.85;;;;;;;7.19;58.41;100448.16;5094510;28;20433;-67
2023/03/02 10:26:44;;;;;;;13.13;6.78;;;;;;;7.52;57.13;100450.22;5073539;28;20126;-68
2023/03/02 10:29:31;;;;;;;11.95;7.13;;;;;;;7.76;56.65;100452.31;5094317;28;20044;-68
2023/03/02 10:32:26;;;;;;;11.45;7.07;;;;;;;7.85;55.79;100446.09;5076255;28;20177;-68
2023/03/02 10:34:52;;;;;;;11.38;6.72;;;;;;;7.76;56.05;100454.97;5093265;28;20032;-68
2023/03/02 10:37:24;;;;;;;10.65;7.20;;;;;;;7.78;54.98;100454.78;5094324;28;20434;-68
2023/03/02 10:39:51;;;;;;;11.65;6.72;;;;;;;7.80;55.41;100445.69;5081601;28;20040;-66
2023/03/02 10:42:27;;;;;;;15.80;7.07;;;;;;;7.96;55.10;100452.16;5074072;28;20450;-66
2023/03/02 10:44:56;;;;;;;9.93;6.82;;;;;;;8.02;54.66;100459.50;5072826;28;20044;-67
2023/03/02 10:47:25;;;;;;;12.00;6.60;;;;;;;8.00;55.04;100443.72;5073683;28;20655;-68
2023/03/02 10:49:52;;;;;;;13.13;6.43;;;;;;;8.38;54.24;100452.38;5072713;28;20035;-65
2023/03/02 10:52:20;;;;;;;16.15;8.00;;;;;;;8.46;54.61;100457.75;5073931;28;20458;-67
2023/03/02 10:54:46;;;;;;;12.63;7.35;;;;;;;8.68;54.11;100451.13;5072652;28;20404;-66
2023/03/02 10:57:23;;;;;;;14.75;8.00;;;;;;;9.08;52.20;100453.19;5055646;28;20037;-68
2023/03/02 10:59:50;;;;;;;13.02;7.28;;;;;;;9.56;50.31;100448.22;5073960;28;20051;-68
2023/03/02 11:02:22;;;;;;;10.60;6.32;;;;;;;10.22;49.65;100439.34;5073822;28;20060;-68
2023/03/02 11:05:09;;;;;;;11.70;7.10;;;;;;;10.97;47.60;100437.28;5073891;28;20045;-68
2023/03/02 11:07:35;;;;;;;11.98;6.88;;;;;;;11.48;46.17;100429.75;5073280;28;20438;-66
2023/03/02 11:10:06;;;;;;;12.98;7.28;;;;;;;11.42;45.14;100430.44;5072463;28;20123;-66
2023/03/02 11:12:35;;;;;;;12.13;7.72;;;;;;;11.13;45.63;100428.38;5073638;28;20029;-67
2023/03/02 11:15:21;;;;;;;10.93;7.40;;;;;;;12.08;44.56;100431.72;5073602;28;20024;-67
2023/03/02 11:18:03;;;;;;;13.38;7.78;;;;;;;12.27;43.23;100432.25;5072981;28;20250;-68
2023/03/02 11:20:33;;;;;;;10.82;7.47;;;;;;;11.98;43.86;100425.78;5073638;28;20375;-68
2023/03/02 11:23:25;;;;;;;10.75;6.13;;;;;;;12.59;43.72;100418.59;5072248;28;20032;-67
2023/03/02 11:25:57;;;;;;;14.68;7.55;;;;;;;13.35;41.68;100421.94;5073484;28;20032;-68
2023/03/02 11:28:34;;;;;;;13.45;8.20;;;;;;;13.58;40.42;100416.47;5073026;28;20036;-67
2023/03/02 11:31:03;;;;;;;17.02;8.68;;;;;;;12.94;44.07;100426.94;5073304;28;20492;-68
2023/03/02 11:33:41;;;;;;;13.32;8.40;;;;;;;14.43;39.35;100425.53;5073367;28;20037;-67
2023/03/02 11:36:33;;;;;;;;;;;;;;;14.48;39.33;100418.59;5073640;28;20032;-69
2023/03/02 11:38:58;;;;;;;14.57;8.07;;;;;;;14.99;39.97;100420.97;5069853;28;19916;-69
2023/03/02 11:41:29;;;;;;;13.40;7.93;;;;;;;16.32;36.25;100416.88;5073042;28;20043;-68
2023/03/02 11:44:00;;;;;;;15.68;8.02;;;;;;;15.82;36.48;100412.88;5073040;28;20078;-69
2023/03/02 11:46:30;;;;;;;12.57;7.82;;;;;;;15.86;36.47;100398.84;5054922;28;20136;-68
2023/03/02 11:49:04;;;;;;;13.05;7.93;;;;;;;15.15;37.27;100391.16;5072674;28;20044;-68
2023/03/02 11:51:35;;;;;;;13.15;7.47;;;;;;;15.37;36.91;100402.59;5071637;28;20474;-68
2023/03/02 11:54:18;;;;;;;13.60;7.68;;;;;;;15.26;37.80;100400.50;5072916;28;20106;-69
2023/03/02 11:56:43;;;;;;;12.13;7.85;;;;;;;14.63;39.50;100402.41;5071383;28;20131;-70
2023/03/02 11:59:15;;;;;;;12.48;8.50;;;;;;;15.11;36.77;100397.94;5072395;28;20128;-69
2023/03/02 12:01:46;;;;;;;12.20;7.55;;;;;;;15.91;35.50;100393.69;5054708;28;20373;-68
2023/03/02 12:04:35;;;;;;;10.77;6.88;;;;;;;16.54;34.99;100407.56;5071396;28;20033;-68
2023/03/02 12:07:21;;;;;;;13.10;7.90;;;;;;;15.44;36.00;100400.75;5072377;28;20032;-69
2023/03/02 12:10:01;;;;;;;11.90;7.22;;;;;;;16.05;35.59;100393.72;5072473;28;20089;-68
2023/03/02 12:12:42;;;;;;;12.60;7.57;;;;;;;15.53;36.90;100403.28;5072388;28;20128;-67
2023/03/02 12:15:39;;;;;;;12.45;7.25;;;;;;;15.92;35.18;100398.03;5072251;28;20032;-69
2023/03/02 12:18:42;;;;;;;13.10;7.68;;;;;;;16.18;35.72;100393.72;5072100;28;20040;-68
2023/03/02 12:21:25;;;;;;;11.82;7.35;;;;;;;16.49;35.02;100396.59;5061893;28;20045;-68
2023/03/02 12:23:51;;;;;;;14.65;7.95;;;;;;;16.54;36.11;100394.13;5072202;28;20039;-68
2023/03/02 12:26:19;;;;;;;11.50;7.22;;;;;;;15.03;36.42;100387.38;5071980;28;20037;-68
2023/03/02 12:29:08;;;;;;;11.57;7.75;;;;;;;15.80;35.54;100377.34;5071705;28;20036;-67
2023/03/02 12:31:44;;;;;;;12.65;8.20;;;;;;;14.97;36.28;100388.16;5071409;28;20497;-67
2023/03/02 12:34:36;;;;;;;12.38;7.15;;;;;;;14.49;38.02;100382.72;5071981;28;20035;-67
2023/03/02 12:37:14;;;;;;;13.50;7.90;;;;;;;15.05;37.16;100377.28;5069036;28;20413;-67
2023/03/02 12:39:58;;;;;;;14.25;7.90;;;;;;;16.37;35.52;100386.69;5070748;28;20044;-67
2023/03/02 12:42:55;;;;;;;13.00;7.60;;;;;;;14.89;37.26;100378.44;5061629;28;20101;-66
2023/03/02 12:45:48;;;;;;;15.07;8.52;;;;;;;14.75;37.70;100370.53;5060944;28;20166;-66
2023/03/02 12:48:41;;;;;;;13.75;7.65;;;;;;;14.59;38.41;100368.97;5062228;28;20062;-67
2023/03/02 12:51:35;;;;;;;14.82;8.00;;;;;;;15.58;37.42;100360.53;5061704;28;20390;-67
2023/03/02 12:54:02;;;;;;;15.27;8.30;;;;;;;15.73;36.61;100348.63;5050986;28;20068;-67
2023/03/02 12:56:28;;;;;;;13.73;7.68;;;;;;;15.05;37.72;100357.66;5061651;28;20478;-67
2023/03/02 12:58:53;;;;;;;12.93;7.72;;;;;;;16.08;36.64;100359.19;5060067;28;20043;-67
2023/03/02 13:01:22;;;;;;;14.00;8.30;;;;;;;16.17;36.06;100347.22;5062309;28;20025;-67
2023/03/02 13:03:48;;;;;;;12.35;8.02;;;;;;;15.28;36.56;100355.50;5060454;28;20028;-67
2023/03/02 13:06:16;;;;;;;12.85;7.63;;;;;;;15.45;37.28;100343.38;5060313;28;20044;-67
2023/03/02 13:08:44;;;;;;;13.25;8.70;;;;;;;14.84;37.67;100351.38;5060155;28;20029;-66
2023/03/02 13:11:10;;;;;;;13.63;8.18;;;;;;;14.23;39.26;100351.19;5062019;28;20037;-66
2023/03/02 13:13:40;;;;;;;13.48;7.70;;;;;;;14.84;38.87;100351.38;5060637;28;20039;-66
2023/03/02 13:16:19;;;;;;;11.75;7.25;;;;;;;15.52;37.40;100358.66;5061749;28;20089;-67
2023/03/02 13:18:45;;;;;;;16.27;8.73;;;;;;;15.13;37.86;100352.97;5059460;28;20086;-67
2023/03/02 13:21:13;;;;;;;11.73;7.88;;;;;;;14.92;37.77;100345.84;5060196;28;20444;-67
2023/03/02 13:23:48;;;;;;;13.73;9.00;;;;;;;14.34;39.06;100347.97;5061182;28;20044;-67
2023/03/02 13:26:32;;;;;;;18.70;8.63;;;;;;;14.20;39.23;100346.19;5061236;28;20436;-67
2023/03/02 13:29:06;;;;;;;14.23;7.95;;;;;;;14.39;39.85;100345.50;5061002;28;20078;-69
2023/03/02 13:31:32;;;;;;;18.58;8.45;;;;;;;14.88;39.26;100338.41;5058022;28;20473;-69
2023/03/02 13:34:00;;;;;;;15.07;8.25;;;;;;;15.32;38.28;100335.31;5060989;28;20032;-68
2023/03/02 13:36:39;;;;;;;15.10;8.27;;;;;;;15.34;37.27;100338.59;5060055;28;20375;-69
2023/03/02 13:39:14;;;;;;;15.40;7.72;;;;;;;15.33;38.04;100344.16;5057141;28;20048;-68
2023/03/02 13:42:01;;;;;;;14.57;8.18;;;;;;;13.79;39.63;100338.00;5051430;28;20470;-69
2023/03/02 13:44:32;;;;;;;13.02;8.10;;;;;;;13.42;40.79;100334.56;5054198;28;20059;-70
2023/03/02 13:46:58;;;;;;;16.02;8.93;;;;;;;13.18;41.25;100330.38;5054995;28;20036;-67
2023/03/02 13:49:27;;;;;;;13.48;7.75;;;;;;;12.90;42.13;100338.22;5055107;28;20071;-69
2023/03/02 13:52:00;;;;;;;12.98;7.70;;;;;;;12.74;43.26;100333.09;5053856;28;20444;-69
2023/03/02 13:54:29;;;;;;;13.40;7.82;;;;;;;12.68;43.86;100340.00;5053980;28;20061;-67
2023/03/02 13:56:57;;;;;;;13.93;7.95;;;;;;;12.21;43.87;100338.50;5054996;28;20498;-68
2023/03/02 13:59:23;;;;;;;14.30;8.38;;;;;;;11.94;44.32;100339.06;5055056;28;20517;-69
2023/03/02 14:01:48;;;;;;;16.15;7.07;;;;;;;12.30;44.17;100333.06;5054946;28;20032;-68
2023/03/02 14:04:16;;;;;;;17.83;8.15;;;;;;;11.88;44.36;100343.28;5061396;28;20115;-66
2023/03/02 14:06:42;;;;;;;14.77;8.48;;;;;;;11.60;45.80;100328.78;5074774;28;20093;-68
2023/03/02 14:09:07;;;;;;;13.70;7.63;;;;;;;11.50;45.54;100329.03;5074579;28;20048;-69
2023/03/02 14:11:36;;;;;;;14.63;7.88;;;;;;;11.38;46.80;100325.94;5074754;28;20043;-69
2023/03/02 14:14:03;;;;;;;13.63;7.75;;;;;;;11.52;46.49;100320.84;5074766;28;20378;-69
2023/03/02 14:16:29;;;;;;;14.40;7.97;;;;;;;11.97;46.28;100319.19;5074657;28;20107;-69
2023/03/02 14:18:57;;;;;;;14.15;7.78;;;;;;;11.31;48.46;100318.81;5074409;28;20478;-68
2023/03/02 14:21:24;;;;;;;13.80;8.18;;;;;;;11.58;48.51;100314.81;5074625;28;20068;-69
2023/03/02 14:23:51;;;;;;;13.25;7.95;;;;;;;11.36;46.85;100316.47;5074651;28;20086;-68
2023/03/02 14:26:31;;;;;;;16.33;8.85;;;;;;;11.14;47.74;100312.72;5074584;28;20072;-67
2023/03/02 14:28:58;;;;;;;15.02;8.70;;;;;;;11.16;47.64;100317.91;5073066;28;20066;-69
2023/03/02 14:31:24;;;;;;;16.08;7.85;;;;;;;10.96;48.56;100318.34;5074349;28;20382;-68
2023/03/02 14:33:50;;;;;;;14.65;7.47;;;;;;;10.83;48.94;100310.09;5074454;28;20102;-68
2023/03/02 14:36:27;;;;;;;13.30;7.95;;;;;;;10.95;48.56;100307.84;5073037;28;20036;-68
2023/03/02 14:38:55;;;;;;;12.23;6.93;;;;;;;10.88;48.62;100305.03;5074392;28;20408;-66
2023/03/02 14:41:23;;;;;;;10.88;7.60;;;;;;;10.65;49.65;100302.31;5074445;28;20024;-68
2023/03/02 14:43:49;;;;;;;14.75;8.00;;;;;;;10.98;49.72;100310.16;5074342;28;20058;-68
2023/03/02 14:46:14;;;;;;;14.57;7.90;;;;;;;10.93;48.74;100301.88;5074030;28;20393;-67
2023/03/02 14:48:40;;;;;;;15.70;8.65;;;;;;;10.91;48.23;100301.22;5073847;28;20106;-68
2023/03/02 14:51:20;;;;;;;14.23;7.80;;;;;;;10.61;49.29;100308.97;5074106;28;20032;-68
2023/03/02 14:53:49;;;;;;;13.63;8.13;;;;;;;10.78;48.99;100307.94;5073742;28;20045;-68
2023/03/02 14:56:16;;;;;;;12.40;7.32;;;;;;;10.93;48.82;100305.34;5073943;28;20082;-68
2023/03/02 14:58:41;;;;;;;18.90;7.67;;;;;;;10.69;49.04;100303.63;5073618;28;20040;-67
2023/03/02 15:01:10;;;;;;;14.88;7.28;;;;;;;10.71;48.49;100304.28;5072727;28;20089;-68
2023/03/02 15:03:35;;;;;;;16.58;7.75;;;;;;;10.61;48.93;100306.31;5074046;28;20052;-68
2023/03/02 15:06:01;;;;;;;12.18;7.55;;;;;;;10.59;49.06;100306.50;5073783;28;20066;-68
2023/03/02 15:08:26;;;;;;;12.98;7.88;;;;;;;10.46;49.50;100305.38;5073419;28;20485;-68
2023/03/02 15:10:52;;;;;;;13.43;7.50;;;;;;;10.42;49.45;100302.22;5073577;28;20045;-68
2023/03/02 15:13:17;;;;;;;12.32;6.97;;;;;;;10.40;49.67;100300.72;5073745;28;20047;-68
2023/03/02 15:15:43;;;;;;;14.35;7.55;;;;;;;10.47;49.88;100304.38;5073563;28;20155;-68
2023/03/02 15:18:11;;;;;;;13.65;6.88;;;;;;;10.42;50.45;100306.72;5073280;28;20026;-67
2023/03/02 15:20:36;;;;;;;;;;;;;;;10.43;49.54;100305.69;5073927;28;20039;-67
2023/03/02 15:23:02;;;;;;;15.27;6.38;;;;;;;10.47;49.99;100309.69;5073529;28;20443;-68
2023/03/02 15:25:28;;;;;;;13.55;6.85;;;;;;;10.39;51.40;100299.06;5072187;28;20033;-68
2023/03/02 15:27:55;;;;;;;11.38;7.50;;;;;;;10.31;50.23;100314.06;5073077;28;20063;-68
2023/03/02 15:30:23;;;;;;;13.18;7.70;;;;;;;10.37;50.49;100306.38;5073276;28;20044;-67
2023/03/02 15:32:49;;;;;;;12.32;7.13;;;;;;;10.46;50.82;100314.19;5071946;28;20405;-68
2023/03/02 15:35:14;;;;;;;12.35;6.10;;;;;;;10.45;51.41;100309.88;5073349;28;20036;-68
2023/03/02 15:37:40;;;;;;;11.25;7.10;;;;;;;10.37;51.44;100315.22;5072900;28;20079;-69
2023/03/02 15:40:06;;;;;;;11.65;6.28;;;;;;;10.35;51.44;100316.38;5073205;28;20404;-66
2023/03/02 15:42:31;;;;;;;16.63;7.13;;;;;;;10.36;51.78;100315.38;5073050;28;20038;-67
2023/03/02 15:44:57;;;;;;;13.55;7.38;;;;;;;10.25;52.04;100312.09;5071856;28;20431;-68
2023/03/02 15:47:22;;;;;;;12.23;7.22;;;;;;;10.29;51.67;100308.06;5071571;28;20036;-68
2023/03/02 15:49:48;;;;;;;14.40;7.28;;;;;;;10.42;51.46;100310.19;5071756;28;20119;-68
2023/03/02 15:52:13;;;;;;;10.77;7.10;;;;;;;10.39;51.40;100309.72;5072779;28;20041;-68
2023/03/02 15:54:39;;;;;;;12.25;7.38;;;;;;;10.39;51.23;100318.53;5072825;28;20060;-68
2023/03/02 15:57:04;;;;;;;10.82;6.82;;;;;;;10.41;52.09;100315.69;5071250;28;20541;-68
2023/03/02 15:59:30;;;;;;;12.55;6.57;;;;;;;10.38;51.86;100311.56;5072545;28;20110;-68
2023/03/02 16:02:01;;;;;;;11.18;6.82;;;;;;;10.32;52.12;100317.56;5072622;28;20093;-67
2023/03/02 16:04:28;;;;;;;12.23;6.75;;;;;;;10.27;52.31;100325.22;5071107;28;20090;-68
2023/03/02 16:06:55;;;;;;;13.07;7.45;;;;;;;10.24;52.21;100317.59;5070705;28;20115;-69
2023/03/02 16:09:21;;;;;;;13.68;7.28;;;;;;;10.21;52.21;100323.19;5072259;28;20174;-68
2023/03/02 16:11:48;;;;;;;16.08;7.75;;;;;;;10.17;52.83;100324.53;5072424;28;20047;-68
2023/03/02 16:14:14;;;;;;;15.85;7.90;;;;;;;10.16;52.46;100325.53;5071303;28;20032;-67
2023/03/02 16:16:41;;;;;;;13.27;8.38;;;;;;;10.10;52.34;100320.88;5072453;28;20393;-68
2023/03/02 16:19:10;;;;;;;13.48;6.85;;;;;;;10.09;52.59;100330.69;5072144;28;20393;-67
2023/03/02 16:21:35;;;;;;;10.80;7.07;;;;;;;9.99;52.86;100328.22;5072147;28;20043;-68
2023/03/02 16:24:04;;;;;;;11.95;7.35;;;;;;;10.02;52.59;100333.19;5072077;28;20041;-67
2023/03/02 16:26:32;;;;;;;12.13;6.32;;;;;;;9.95;52.35;100334.88;5070970;28;20115;-61
2023/03/02 16:28:58;;;;;;;17.17;7.85;;;;;;;9.85;52.25;100336.88;5070666;28;20068;-65
2023/03/02 16:31:27;;;;;;;12.40;6.78;;;;;;;9.80;52.79;100333.88;5072105;28;20037;-67
2023/03/02 16:33:54;;;;;;;15.48;8.43;;;;;;;9.76;52.84;100336.03;5072197;28;20049;-67
2023/03/02 16:36:21;;;;;;;15.13;7.60;;;;;;;9.74;53.63;100339.88;5072016;28;20036;-68
2023/03/02 16:38:47;;;;;;;13.68;6.97;;;;;;;9.63;53.73;100337.53;5071634;28;20044;-67
2023/03/02 16:41:16;;;;;;;14.07;7.72;;;;;;;9.57;53.72;100340.84;5071873;28;20032;-67
2023/03/02 16:43:50;;;;;;;13.02;7.15;;;;;;;9.50;54.30;100345.97;5071298;28;20046;-67
2023/03/02 16:46:16;;;;;;;14.02;6.82;;;;;;;9.43;54.38;100348.47;5071488;28;20047;-67
2023/03/02 16:48:43;;;;;;;14.38;7.43;;;;;;;9.25;54.39;100353.06;5072138;28;20024;-66
2023/03/02 16:51:08;;;;;;;12.05;7.20;;;;;;;9.15;55.03;100353.22;5072070;28;20405;-67
2023/03/02 16:53:34;;;;;;;12.82;7.03;;;;;;;9.14;55.11;100353.38;5071863;28;20041;-67
2023/03/02 16:56:00;;;;;;;11.48;7.20;;;;;;;9.06;55.26;100358.66;5071687;28;20044;-68